Time;durP1;ratioP1;P1;durP2;ratioP2;P2;SDS_P1;SDS_P2;PMS_P1;PMS_P2;Temp;Humidity;BMP_temperature;BMP_pressure;BME280_temperature;BME280_humidity;BME280_pressure;Samples;Min_cycle;Max_cycle;Signal;HPM_P1;HPM_P2
2024/01/14 00:01:51;;;;;;;;;;;18.90;57.10;;;;;;5108352;27;43020;-81
2024/01/14 00:04:17;;;;;;;;;;;18.80;57.00;;;;;;5108044;27;43737;-87
2024/01/14 00:06:42;;;;;;;;;;;18.90;57.10;;;;;;5107219;27;43686;-87
2024/01/14 00:09:08;;;;;;;;;;;18.90;57.00;;;;;;5107189;27;42955;-83
2024/01/14 00:11:33;;;;;;;;;;;18.90;57.00;;;;;;5107537;27;43050;-87
2024/01/14 00:13:59;;;;;;;;;;;18.80;57.00;;;;;;5107392;27;43694;-83
2024/01/14 00:16:25;;;;;;;;;;;18.80;56.90;;;;;;5093920;27;43342;-83
2024/01/14 00:18:50;;;;;;;;;;;18.80;56.90;;;;;;5107353;27;43430;-85
2024/01/14 00:21:16;;;;;;;;;;;18.90;56.90;;;;;;5106370;27;42889;-86
2024/01/14 00:23:41;;;;;;;;;;;18.80;56.90;;;;;;5105838;27;42994;-86
2024/01/14 00:26:07;;;;;;;;;;;18.90;57.00;;;;;;5107714;27;42778;-86
2024/01/14 00:28:33;;;;;;;;;;;18.60;56.90;;;;;;5107987;27;43741;-85
2024/01/14 00:30:59;;;;;;;;;;;18.80;56.80;;;;;;5107644;27;43579;-86
2024/01/14 00:33:24;;;;;;;;;;;18.90;56.90;;;;;;5107335;27;43681;-86
2024/01/14 00:35:50;;;;;;;;;;;18.90;56.90;;;;;;5107195;27;42893;-82
2024/01/14 00:38:15;;;;;;;;;;;18.90;56.90;;;;;;5107731;27;42828;-84
2024/01/14 00:40:41;;;;;;;;;;;18.80;56.80;;;;;;5107407;27;42872;-85
2024/01/14 00:43:06;;;;;;;;;;;18.80;56.90;;;;;;5106930;27;43445;-84
2024/01/14 00:45:32;;;;;;;;;;;18.80;56.90;;;;;;5108289;27;43043;-84
2024/01/14 00:47:57;;;;;;;;;;;18.80;56.80;;;;;;5109313;27;43990;-85
2024/01/14 00:50:23;;;;;;;;;;;18.80;56.90;;;;;;5105097;27;43078;-84
2024/01/14 00:52:49;;;;;;;;;;;18.80;56.90;;;;;;5107864;27;43496;-86
2024/01/14 00:55:14;;;;;;;;;;;18.80;56.90;;;;;;5106960;27;43758;-88
2024/01/14 00:57:40;;;;;;;;;;;18.80;56.90;;;;;;5107430;27;42953;-84
2024/01/14 01:00:09;;;;;;;;;;;18.80;57.00;;;;;;5093657;27;43097;-84
2024/01/14 01:02:35;;;;;;;;;;;18.80;56.90;;;;;;5107329;27;42894;-84
2024/01/14 01:05:01;;;;;;;;;;;18.80;57.00;;;;;;5107451;27;42800;-86
2024/01/14 01:07:26;;;;;;;;;;;18.80;56.90;;;;;;5106588;27;43363;-83
2024/01/14 01:09:52;;;;;;;;;;;18.80;57.40;;;;;;5107053;27;42769;-84
2024/01/14 01:12:17;;;;;;;;;;;18.60;56.90;;;;;;5106465;27;42983;-82
2024/01/14 01:14:44;;;;;;;;;;;18.80;56.60;;;;;;5106630;27;43110;-85
2024/01/14 01:17:10;;;;;;;;;;;18.80;57.00;;;;;;5103732;27;43573;-86
2024/01/14 01:19:35;;;;;;;;;;;18.80;57.00;;;;;;5105957;27;43186;-86
2024/01/14 01:22:01;;;;;;;;;;;18.80;57.20;;;;;;5105854;27;42912;-83
2024/01/14 01:24:26;;;;;;;;;;;18.90;57.20;;;;;;5092859;27;42834;-85
2024/01/14 01:26:52;;;;;;;;;;;18.80;57.00;;;;;;5106258;27;42938;-83
2024/01/14 01:29:17;;;;;;;;;;;18.90;57.00;;;;;;5092951;27;42900;-85
2024/01/14 01:31:43;;;;;;;;;;;18.80;57.00;;;;;;5104687;27;43387;-84
2024/01/14 01:34:08;;;;;;;;;;;18.80;57.00;;;;;;5106116;27;43055;-86
2024/01/14 01:36:34;;;;;;;;;;;18.90;57.00;;;;;;5106443;27;43542;-85
2024/01/14 01:39:00;;;;;;;;;;;18.80;56.90;;;;;;5106122;27;43054;-87
2024/01/14 01:41:26;;;;;;;;;;;18.80;56.90;;;;;;5105811;27;42930;-84
2024/01/14 01:43:51;;;;;;;;;;;18.80;56.90;;;;;;5106061;27;42985;-84
2024/01/14 01:46:17;;;;;;;;;;;18.80;56.90;;;;;;5105808;27;42940;-84
2024/01/14 01:48:42;;;;;;;;;;;18.80;56.90;;;;;;5111656;27;42929;-84
2024/01/14 01:51:09;;;;;;;;;;;18.80;56.90;;;;;;5105422;27;43437;-85
2024/01/14 01:53:34;;;;;;;;;;;18.80;56.90;;;;;;5105798;27;42979;-84
2024/01/14 01:56:01;;;;;;;;;;;18.80;56.90;;;;;;5091356;27;43089;-85
2024/01/14 01:58:27;;;;;;;;;;;18.80;56.80;;;;;;5104831;27;42958;-85
2024/01/14 02:00:52;;;;;;;;;;;18.80;56.90;;;;;;5105943;27;43039;-86
2024/01/14 02:03:19;;;;;;;;;;;18.80;56.80;;;;;;5105947;27;42814;-90
2024/01/14 02:05:45;;;;;;;;;;;18.80;56.80;;;;;;5105944;27;42893;-88
2024/01/14 02:08:11;;;;;;;;;;;18.80;56.80;;;;;;5104779;27;42971;-89
2024/01/14 02:10:36;;;;;;;;;;;18.80;56.80;;;;;;5105165;27;43107;-88
2024/01/14 02:13:03;;;;;;;;;;;18.80;56.80;;;;;;5105713;27;42928;-86
2024/01/14 02:15:28;;;;;;;;;;;18.80;56.90;;;;;;5105913;27;43025;-88
2024/01/14 02:17:54;;;;;;;;;;;18.80;56.80;;;;;;5106006;27;43011;-85
2024/01/14 02:20:19;;;;;;;;;;;18.80;56.90;;;;;;5106034;27;42955;-89
2024/01/14 02:22:46;;;;;;;;;;;18.80;56.90;;;;;;5105888;27;42946;-88
2024/01/14 02:25:12;;;;;;;;;;;18.80;56.80;;;;;;5105621;27;43866;-88
2024/01/14 02:27:37;;;;;;;;;;;18.80;56.80;;;;;;5105471;27;42963;-89
2024/01/14 02:30:03;;;;;;;;;;;18.70;57.30;;;;;;5103306;27;43015;-86
2024/01/14 02:32:29;;;;;;;;;;;18.80;57.00;;;;;;5090806;27;42928;-86
2024/01/14 02:34:54;;;;;;;;;;;18.80;56.90;;;;;;5098631;27;43283;-88
2024/01/14 02:37:20;;;;;;;;;;;18.70;56.90;;;;;;5098749;27;42909;-88
2024/01/14 02:39:45;;;;;;;;;;;18.80;56.90;;;;;;5094146;27;43438;-88
2024/01/14 02:42:11;;;;;;;;;;;18.70;56.90;;;;;;5103715;27;42870;-88
2024/01/14 02:44:36;;;;;;;;;;;18.70;56.80;;;;;;5104084;27;43729;-88
2024/01/14 02:47:02;;;;;;;;;;;18.70;56.80;;;;;;5104082;27;42986;-87
2024/01/14 02:49:27;;;;;;;;;;;18.70;56.90;;;;;;5093891;27;43095;-88
2024/01/14 02:51:53;;;;;;;;;;;18.70;56.80;;;;;;5104605;27;42864;-86
2024/01/14 02:54:18;;;;;;;;;;;18.70;56.80;;;;;;5105126;27;43007;-87
2024/01/14 02:56:44;;;;;;;;;;;18.70;56.80;;;;;;5104740;27;43015;-87
2024/01/14 02:59:09;;;;;;;;;;;18.70;56.80;;;;;;5105187;27;43817;-83
2024/01/14 03:01:42;;;;;;;;;;;18.70;56.80;;;;;;5107947;27;42939;-82
2024/01/14 03:04:07;;;;;;;;;;;18.80;56.70;;;;;;5119650;27;43694;-83
2024/01/14 03:06:33;;;;;;;;;;;18.70;56.50;;;;;;5107788;27;43218;-82
2024/01/14 03:08:58;;;;;;;;;;;18.70;56.50;;;;;;5107231;27;43138;-84
2024/01/14 03:11:24;;;;;;;;;;;18.70;56.40;;;;;;5105549;27;43034;-82
2024/01/14 03:13:49;;;;;;;;;;;18.70;56.30;;;;;;5105035;27;43272;-82
2024/01/14 03:16:15;;;;;;;;;;;18.70;56.30;;;;;;5105242;27;43067;-82
2024/01/14 03:18:41;;;;;;;;;;;18.70;56.30;;;;;;5091109;27;43502;-84
2024/01/14 03:21:08;;;;;;;;;;;18.70;56.20;;;;;;5103396;27;43140;-84
2024/01/14 03:23:33;;;;;;;;;;;18.70;56.00;;;;;;5105058;27;42980;-82
2024/01/14 03:25:59;;;;;;;;;;;18.70;56.00;;;;;;5104980;27;43067;-84
2024/01/14 03:28:24;;;;;;;;;;;18.70;55.90;;;;;;5104819;27;42976;-82
2024/01/14 03:30:50;;;;;;;;;;;18.70;55.90;;;;;;5104633;27;42970;-83
2024/01/14 03:33:15;;;;;;;;;;;18.70;55.90;;;;;;5104111;27;43504;-84
2024/01/14 03:35:41;;;;;;;;;;;18.70;55.80;;;;;;5104368;27;43429;-84
2024/01/14 03:38:07;;;;;;;;;;;18.70;55.70;;;;;;5104224;27;42959;-84
2024/01/14 03:40:33;;;;;;;;;;;18.70;55.60;;;;;;5091998;27;43100;-82
2024/01/14 03:42:58;;;;;;;;;;;18.70;55.60;;;;;;5103830;27;43022;-86
2024/01/14 03:45:24;;;;;;;;;;;18.70;55.60;;;;;;5104542;27;43045;-87
2024/01/14 03:47:50;;;;;;;;;;;18.70;55.50;;;;;;5104280;27;43801;-86
2024/01/14 03:50:15;;;;;;;;;;;18.70;55.60;;;;;;5115826;27;42923;-86
2024/01/14 03:52:41;;;;;;;;;;;18.70;55.50;;;;;;5104917;27;43214;-83
2024/01/14 03:55:07;;;;;;;;;;;18.70;55.40;;;;;;5104484;27;43049;-85
2024/01/14 03:57:32;;;;;;;;;;;18.60;55.30;;;;;;5104078;27;43026;-85
2024/01/14 03:59:58;;;;;;;;;;;18.70;55.30;;;;;;5104064;27;42944;-89
2024/01/14 04:02:23;;;;;;;;;;;18.70;55.30;;;;;;5104018;27;43668;-85
2024/01/14 04:04:49;;;;;;;;;;;18.60;55.10;;;;;;5103300;27;43328;-87
2024/01/14 04:07:14;;;;;;;;;;;18.70;55.10;;;;;;5103843;27;43424;-85
2024/01/14 04:09:40;;;;;;;;;;;18.60;54.60;;;;;;5091398;27;42920;-86
2024/01/14 04:12:05;;;;;;;;;;;18.70;55.10;;;;;;5104453;27;43060;-85
2024/01/14 04:14:31;;;;;;;;;;;18.70;55.10;;;;;;5091025;27;43058;-84
2024/01/14 04:16:56;;;;;;;;;;;18.60;55.00;;;;;;5101961;27;44241;-84
2024/01/14 04:19:22;;;;;;;;;;;18.60;55.00;;;;;;5103212;27;42912;-83
2024/01/14 04:21:48;;;;;;;;;;;18.70;55.10;;;;;;5103598;27;43285;-81
2024/01/14 04:24:14;;;;;;;;;;;18.70;55.10;;;;;;5103880;27;43257;-86
2024/01/14 04:26:39;;;;;;;;;;;18.60;55.00;;;;;;5103036;27;42956;-89
2024/01/14 04:29:05;;;;;;;;;;;18.60;54.90;;;;;;5103504;27;43094;-87
2024/01/14 04:31:31;;;;;;;;;;;18.70;55.10;;;;;;5105950;27;43022;-86
2024/01/14 04:33:58;;;;;;;;;;;18.60;55.00;;;;;;5119984;27;44182;-88
2024/01/14 04:36:23;;;;;;;;;;;18.60;54.90;;;;;;5106733;27;43466;-85
2024/01/14 04:38:49;;;;;;;;;;;18.60;54.90;;;;;;5101873;27;43007;-87
2024/01/14 04:41:14;;;;;;;;;;;18.60;54.90;;;;;;5104648;27;43573;-86
2024/01/14 04:43:40;;;;;;;;;;;18.60;54.90;;;;;;5100412;27;42881;-87
2024/01/14 04:46:11;;;;;;;;;;;18.60;54.90;;;;;;5107084;27;42982;-83
2024/01/14 04:48:36;;;;;;;;;;;18.60;54.80;;;;;;5097018;27;42995;-81
2024/01/14 04:51:02;;;;;;;;;;;18.60;54.80;;;;;;5102403;27;43609;-81
2024/01/14 04:53:27;;;;;;;;;;;18.60;54.80;;;;;;5107606;27;43116;-82
2024/01/14 04:55:53;;;;;;;;;;;18.60;54.80;;;;;;5107453;27;43585;-87
2024/01/14 04:58:19;;;;;;;;;;;18.60;54.80;;;;;;5097730;27;42941;-86
2024/01/14 05:00:44;;;;;;;;;;;18.60;54.90;;;;;;5105639;27;43520;-87
2024/01/14 05:03:10;;;;;;;;;;;18.60;54.90;;;;;;5107067;27;42961;-88
2024/01/14 05:05:36;;;;;;;;;;;18.60;54.80;;;;;;5107271;27;42913;-88
2024/01/14 05:08:01;;;;;;;;;;;18.60;54.80;;;;;;5106646;27;42849;-88
2024/01/14 05:10:27;;;;;;;;;;;18.60;54.80;;;;;;5106068;27;42867;-88
2024/01/14 05:12:52;;;;;;;;;;;18.60;54.80;;;;;;5106104;27;43037;-87
2024/01/14 05:15:18;;;;;;;;;;;18.60;54.80;;;;;;5106305;27;43167;-88
2024/01/14 05:17:43;;;;;;;;;;;18.60;54.80;;;;;;5106603;27;43071;-86
2024/01/14 05:20:09;;;;;;;;;;;18.60;54.90;;;;;;5106383;27;42973;-86
2024/01/14 05:22:34;;;;;;;;;;;18.60;54.80;;;;;;5107045;27;43091;-87
2024/01/14 05:25:00;;;;;;;;;;;18.60;54.80;;;;;;5108020;27;42956;-88
2024/01/14 05:27:26;;;;;;;;;;;18.60;54.80;;;;;;5107000;27;42923;-89
2024/01/14 05:29:51;;;;;;;;;;;18.60;54.90;;;;;;5106398;27;43110;-88
2024/01/14 05:32:17;;;;;;;;;;;18.60;54.80;;;;;;5106391;27;43034;-86
2024/01/14 05:34:44;;;;;;;;;;;18.60;54.70;;;;;;5106229;27;43708;-82
2024/01/14 05:37:10;;;;;;;;;;;18.60;54.60;;;;;;5106724;27;43222;-81
2024/01/14 05:39:35;;;;;;;;;;;18.60;54.70;;;;;;5095035;27;43544;-82
2024/01/14 05:42:01;;;;;;;;;;;18.50;54.70;;;;;;5105886;27;42964;-81
2024/01/14 05:44:27;;;;;;;;;;;18.50;54.70;;;;;;5106484;27;42956;-82
2024/01/14 05:46:53;;;;;;;;;;;18.50;54.70;;;;;;5104748;27;43105;-82
2024/01/14 05:49:18;;;;;;;;;;;18.50;54.70;;;;;;5106546;27;43201;-82
2024/01/14 05:51:44;;;;;;;;;;;18.50;54.70;;;;;;5105781;27;43179;-82
2024/01/14 05:54:09;;;;;;;;;;;18.50;54.70;;;;;;5104162;27;43450;-82
2024/01/14 05:56:35;;;;;;;;;;;18.50;54.80;;;;;;5105870;27;42913;-82
2024/01/14 05:59:01;;;;;;;;;;;18.50;54.80;;;;;;5105687;27;43629;-82
2024/01/14 06:01:27;;;;;;;;;;;18.50;54.70;;;;;;5104689;27;43003;-82
2024/01/14 06:03:52;;;;;;;;;;;18.60;54.70;;;;;;5105206;27;43120;-85
2024/01/14 06:06:18;;;;;;;;;;;18.50;54.70;;;;;;5106538;27;43110;-88
2024/01/14 06:08:44;;;;;;;;;;;18.50;54.70;;;;;;5104743;27;43908;-85
2024/01/14 06:11:09;;;;;;;;;;;18.50;54.80;;;;;;5105714;27;43198;-85
2024/01/14 06:13:35;;;;;;;;;;;18.50;54.70;;;;;;5105949;27;42853;-86
2024/01/14 06:16:01;;;;;;;;;;;18.50;54.70;;;;;;5105664;27;42902;-86
2024/01/14 06:18:28;;;;;;;;;;;18.50;54.60;;;;;;5105526;27;45167;-85
2024/01/14 06:20:55;;;;;;;;;;;18.50;54.60;;;;;;5105703;27;42912;-83
2024/01/14 06:23:21;;;;;;;;;;;18.50;54.60;;;;;;5098532;27;43042;-86
2024/01/14 06:25:47;;;;;;;;;;;18.50;54.70;;;;;;5105425;27;43007;-83
2024/01/14 06:28:12;;;;;;;;;;;18.50;54.70;;;;;;5104432;27;43079;-83
2024/01/14 06:30:38;;;;;;;;;;;18.50;54.70;;;;;;5105089;27;43150;-86
2024/01/14 06:33:03;;;;;;;;;;;18.50;54.70;;;;;;5105596;27;42943;-82
2024/01/14 06:35:29;;;;;;;;;;;18.50;54.70;;;;;;5105073;27;42936;-85
2024/01/14 06:37:54;;;;;;;;;;;18.50;54.60;;;;;;5103328;27;42947;-85
2024/01/14 06:40:20;;;;;;;;;;;18.50;54.70;;;;;;5095803;27;42876;-84
2024/01/14 06:42:45;;;;;;;;;;;18.50;54.70;;;;;;5105502;27;43375;-81
2024/01/14 06:45:12;;;;;;;;;;;18.40;54.70;;;;;;5102406;27;42844;-83
2024/01/14 06:47:37;;;;;;;;;;;18.40;55.20;;;;;;5120383;27;42991;-83
2024/01/14 06:50:03;;;;;;;;;;;18.40;54.70;;;;;;5104913;27;43221;-83
2024/01/14 06:52:28;;;;;;;;;;;18.40;54.70;;;;;;5114860;27;43174;-84
2024/01/14 06:54:54;;;;;;;;;;;18.40;54.70;;;;;;5105989;27;43122;-82
2024/01/14 06:57:19;;;;;;;;;;;18.40;54.70;;;;;;5100510;27;43723;-84
2024/01/14 06:59:45;;;;;;;;;;;18.40;54.70;;;;;;5100785;27;42974;-81
2024/01/14 07:02:12;;;;;;;;;;;18.40;54.70;;;;;;5104854;27;43633;-85
2024/01/14 07:04:38;;;;;;;;;;;18.40;54.80;;;;;;5114146;27;43138;-88
2024/01/14 07:07:03;;;;;;;;;;;18.40;54.90;;;;;;5101986;27;43777;-90
2024/01/14 07:09:29;;;;;;;;;;;18.40;55.20;;;;;;5095784;27;42917;-91
2024/01/14 07:11:54;;;;;;;;;;;18.40;54.70;;;;;;5096102;27;42894;-90
2024/01/14 07:14:22;;;;;;;;;;;18.40;54.60;;;;;;5109388;27;43160;-90
2024/01/14 07:16:48;;;;;;;;;;;18.40;54.60;;;;;;5112603;27;44535;-89
2024/01/14 07:19:13;;;;;;;;;;;18.40;54.50;;;;;;5103535;27;42957;-90
2024/01/14 07:21:39;;;;;;;;;;;18.40;54.60;;;;;;5101744;27;43535;-92
2024/01/14 07:24:04;;;;;;;;;;;18.40;54.10;;;;;;5103226;27;42884;-90
2024/01/14 07:26:30;;;;;;;;;;;18.40;54.70;;;;;;5096430;27;43250;-91
2024/01/14 07:28:55;;;;;;;;;;;18.40;54.90;;;;;;5108139;27;43043;-90
2024/01/14 07:31:25;;;;;;;;;;;18.40;55.00;;;;;;5107576;27;42783;-91
2024/01/14 07:33:51;;;;;;;;;;;18.40;55.00;;;;;;5101642;27;43097;-90
2024/01/14 07:36:17;;;;;;;;;;;18.40;55.00;;;;;;5092675;27;42904;-77
2024/01/14 07:38:42;;;;;;;;;;;18.40;54.90;;;;;;5099808;27;43015;-89
2024/01/14 07:41:10;;;;;;;;;;;18.40;54.50;;;;;;5094353;27;45130;-79
2024/01/14 07:43:35;;;;;;;;;;;18.40;54.90;;;;;;5104147;27;42994;-79
2024/01/14 07:46:01;;;;;;;;;;;18.40;55.00;;;;;;5100406;27;44038;-79
2024/01/14 07:48:26;;;;;;;;;;;18.40;54.90;;;;;;5108365;27;42943;-81
2024/01/14 07:50:55;;;;;;;;;;;18.40;54.90;;;;;;5106547;27;42972;-78
2024/01/14 07:53:21;;;;;;;;;;;18.40;54.90;;;;;;5113334;27;42933;-78
2024/01/14 07:55:46;;;;;;;;;;;18.30;46.30;;;;;;5094463;27;43113;-79
2024/01/14 07:58:12;;;;;;;;;;;18.00;38.20;;;;;;5102925;27;42933;-77
2024/01/14 08:00:38;;;;;;;;;;;17.70;36.10;;;;;;5095905;27;43907;-75
2024/01/14 08:03:04;;;;;;;;;;;17.30;35.00;;;;;;5103035;27;43160;-77
2024/01/14 08:05:29;;;;;;;;;;;17.00;37.10;;;;;;5097054;27;42936;-93
2024/01/14 08:07:55;;;;;;;;;;;16.90;41.20;;;;;;5105689;27;42983;-95
2024/01/14 08:10:21;;;;;;;;;;;16.80;43.00;;;;;;5107891;27;43700;-90
2024/01/14 08:12:46;;;;;;;;;;;16.80;44.00;;;;;;5107435;27;43148;-85
2024/01/14 08:15:12;;;;;;;;;;;16.90;44.90;;;;;;5109025;27;44242;-80
2024/01/14 08:17:38;;;;;;;;;;;17.00;45.80;;;;;;5121061;27;44198;-89
2024/01/14 08:20:08;;;;;;;;;;;17.10;47.00;;;;;;5113139;27;43244;-87
2024/01/14 08:22:33;;;;;;;;;;;17.20;47.20;;;;;;5107732;27;43005;-87
2024/01/14 08:24:59;;;;;;;;;;;17.30;47.50;;;;;;5103704;27;42958;-83
2024/01/14 08:27:24;;;;;;;;;;;17.40;47.90;;;;;;5110696;27;42998;-83
2024/01/14 08:29:50;;;;;;;;;;;17.50;48.40;;;;;;5108651;27;43000;-80
2024/01/14 08:32:15;;;;;;;;;;;17.60;49.00;;;;;;5105272;27;43313;-79
2024/01/14 08:34:41;;;;;;;;;;;17.60;47.10;;;;;;5108740;27;43206;-78
2024/01/14 08:37:06;;;;;;;;;;;17.70;47.80;;;;;;5104138;27;43003;-79
2024/01/14 08:39:32;;;;;;;;;;;17.70;48.30;;;;;;5094702;27;43061;-79
2024/01/14 08:41:57;;;;;;;;;;;17.80;48.70;;;;;;5098559;27;43081;-80
2024/01/14 08:44:23;;;;;;;;;;;17.80;48.90;;;;;;5108068;27;43691;-79
2024/01/14 08:46:48;;;;;;;;;;;17.90;49.10;;;;;;5108688;27;43874;-76
2024/01/14 08:49:14;;;;;;;;;;;17.90;49.30;;;;;;5098715;27;44096;-87
2024/01/14 08:51:40;;;;;;;;;;;18.00;49.80;;;;;;5104071;27;42910;-94
2024/01/14 08:54:05;;;;;;;;;;;18.00;49.90;;;;;;5097303;27;42968;-91
2024/01/14 08:56:31;;;;;;;;;;;18.00;50.00;;;;;;5101266;27;42951;-92
2024/01/14 08:58:57;;;;;;;;;;;18.00;50.40;;;;;;5114400;27;43126;-90
2024/01/14 09:01:23;;;;;;;;;;;18.10;50.50;;;;;;5103624;27;43016;-89
2024/01/14 09:03:48;;;;;;;;;;;18.10;50.70;;;;;;5102085;27;43204;-87
2024/01/14 09:06:14;;;;;;;;;;;18.10;50.70;;;;;;5118050;27;43106;-87
2024/01/14 09:08:40;;;;;;;;;;;18.10;50.40;;;;;;5112650;27;44549;-85
2024/01/14 09:16:16;;;;;;;;;;;18.20;51.90;;;;;;5054421;28;44057;-80
2024/01/14 09:18:41;;;;;;;;;;;18.10;52.00;;;;;;5048254;28;43502;-84
2024/01/14 09:21:07;;;;;;;;;;;18.20;52.40;;;;;;5053647;28;42981;-79
2024/01/14 09:23:33;;;;;;;;;;;18.20;52.10;;;;;;5045961;28;43036;-79
2024/01/14 09:26:02;;;;;;;;;;;18.30;52.60;;;;;;5040071;28;43091;-78
2024/01/14 09:28:28;;;;;;;;;;;18.20;53.70;;;;;;5043079;28;44182;-79
2024/01/14 09:30:53;;;;;;;;;;;18.30;54.30;;;;;;5047511;28;42892;-79
2024/01/14 09:51:12;;;;;;;;;;;18.40;53.90;;;;;;5059961;28;44194;-80
2024/01/14 09:53:40;;;;;;;;;;;18.40;54.30;;;;;;5070121;28;44587;-79
2024/01/14 09:56:07;;;;;;;;;;;18.40;54.30;;;;;;5059757;28;42884;-79
2024/01/14 09:58:33;;;;;;;;;;;18.50;54.50;;;;;;5060759;28;43166;-79
2024/01/14 10:01:00;;;;;;;;;;;18.40;54.50;;;;;;5059482;28;42967;-79
2024/01/14 10:03:26;;;;;;;;;;;18.50;54.60;;;;;;5064149;28;43728;-79
2024/01/14 10:05:53;;;;;;;;;;;17.60;54.10;;;;;;5070082;28;42865;-78
2024/01/14 10:08:18;;;;;;;;;;;18.50;54.60;;;;;;5072417;28;43963;-78
2024/01/14 10:10:50;;;;;;;;;;;18.50;54.70;;;;;;5072997;28;43056;-80
2024/01/14 10:13:15;;;;;;;;;;;18.50;54.80;;;;;;5062173;28;42881;-79
2024/01/14 10:15:41;;;;;;;;;;;18.50;54.80;;;;;;5056785;28;42979;-79
2024/01/14 11:23:24;;;;;;;;;;;18.70;55.90;;;;;;5610708;22;43075;-79
2024/01/14 11:25:50;;;;;;;;;;;18.70;55.80;;;;;;5097393;27;43303;-79
2024/01/14 11:28:16;;;;;;;;;;;18.70;55.90;;;;;;5089249;27;42975;-79
2024/01/14 11:30:47;;;;;;;;;;;18.70;55.90;;;;;;5092858;27;44139;-78
2024/01/14 11:33:32;;;;;;;;;;;18.70;55.70;;;;;;5102517;27;44371;-78
2024/01/14 11:36:07;;;;;;;;;;;18.70;55.70;;;;;;5094052;27;44038;-78
2024/01/14 11:38:45;;;;;;;;;;;18.70;56.10;;;;;;5089524;27;43594;-80
2024/01/14 11:41:34;;;;;;;;;;;18.70;56.10;;;;;;5107445;27;43510;-80
2024/01/14 11:44:03;;;;;;;;;;;18.70;56.10;;;;;;5096674;27;43598;-79
2024/01/14 11:46:42;;;;;;;;;;;18.70;56.20;;;;;;5104651;27;43055;-80
2024/01/14 11:49:11;;;;;;;;;;;18.70;56.50;;;;;;5098392;27;43233;-79
2024/01/14 11:51:43;;;;;;;;;;;18.70;56.30;;;;;;5085075;27;43033;-80
2024/01/14 11:54:09;;;;;;;;;;;18.70;56.40;;;;;;5101670;27;43562;-80
2024/01/14 11:56:35;;;;;;;;;;;18.70;56.30;;;;;;5078193;27;43788;-81
2024/01/14 11:59:05;;;;;;;;;;;18.70;56.50;;;;;;5107414;27;42949;-80
2024/01/14 12:01:32;;;;;;;;;;;18.70;56.50;;;;;;5102111;27;43135;-80
2024/01/14 12:04:04;;;;;;;;;;;18.60;56.50;;;;;;5104174;27;42944;-79
2024/01/14 12:06:37;;;;;;;;;;;18.60;56.50;;;;;;5097576;27;43057;-80
2024/01/14 12:09:02;;;;;;;;;;;18.60;56.90;;;;;;5103236;27;42909;-80
2024/01/14 12:11:28;;;;;;;;;;;18.70;58.20;;;;;;5105459;27;42905;-79
2024/01/14 12:13:54;;;;;;;;;;;18.70;58.20;;;;;;5088741;27;44731;-81
2024/01/14 12:16:19;;;;;;;;;;;18.70;57.80;;;;;;5107258;27;43270;-81
2024/01/14 12:18:45;;;;;;;;;;;18.70;58.00;;;;;;5104980;27;44139;-81
2024/01/14 12:21:11;;;;;;;;;;;18.70;57.80;;;;;;5106931;27;42924;-81
2024/01/14 12:23:36;;;;;;;;;;;18.70;58.60;;;;;;5092457;27;43108;-82
2024/01/14 12:26:05;;;;;;;;;;;18.70;58.20;;;;;;5100017;27;43001;-81
2024/01/14 12:28:31;;;;;;;;;;;18.70;58.40;;;;;;5106631;27;44913;-80
2024/01/14 12:30:57;;;;;;;;;;;18.70;58.30;;;;;;5107212;27;43060;-81
2024/01/14 12:33:22;;;;;;;;;;;18.70;58.30;;;;;;5108073;27;43074;-81
2024/01/14 12:35:48;;;;;;;;;;;18.70;58.30;;;;;;5125642;27;42593;-82
2024/01/14 12:38:14;;;;;;;;;;;18.70;58.30;;;;;;5127769;27;42681;-81
2024/01/14 12:40:39;;;;;;;;;;;18.70;58.40;;;;;;5121387;27;42833;-81
2024/01/14 12:43:05;;;;;;;;;;;19.20;59.20;;;;;;5109289;27;44521;-81
2024/01/14 12:45:31;;;;;;;;;;;18.70;58.40;;;;;;5098531;27;42907;-81
2024/01/14 12:47:57;;;;;;;;;;;18.70;58.30;;;;;;5106921;27;43247;-80
2024/01/14 13:11:55;;;;;;;;;;;19.00;57.20;;;;;;5001520;28;43091;-78
2024/01/14 13:23:55;;;;;;;;;;;19.20;57.10;;;;;;5114920;22;43454;-78
2024/01/14 13:26:25;;;;;;;;;;;19.70;57.20;;;;;;5083299;27;43524;-79
2024/01/14 13:29:00;;;;;;;;;;;19.70;57.30;;;;;;5081291;27;43082;-78
2024/01/14 13:31:37;;;;;;;;;;;18.80;56.80;;;;;;5085311;28;43000;-78
2024/01/14 13:34:03;;;;;;;;;;;19.20;57.00;;;;;;5082885;28;42973;-79
2024/01/14 13:36:28;;;;;;;;;;;18.70;56.90;;;;;;5084382;28;43749;-78
2024/01/14 13:38:55;;;;;;;;;;;18.70;56.80;;;;;;5078746;28;43087;-78
2024/01/14 13:41:21;;;;;;;;;;;16.60;55.80;;;;;;5077900;27;43026;-78
2024/01/14 13:43:46;;;;;;;;;;;18.70;56.80;;;;;;5082911;28;42982;-79
2024/01/14 13:46:12;;;;;;;;;;;18.70;57.00;;;;;;5083715;28;43081;-78
2024/01/14 13:48:37;;;;;;;;;;;18.70;56.90;;;;;;5076549;27;44113;-78
2024/01/14 13:51:03;;;;;;;;;;;18.70;56.90;;;;;;5076517;28;43016;-78
2024/01/14 13:53:29;;;;;;;;;;;18.70;57.00;;;;;;5082578;27;43335;-79
2024/01/14 13:58:19;;;;;;;;;;;18.90;57.30;;;;;;5105305;22;68299;-84
2024/01/14 14:00:45;;;;;;;;;;;18.80;57.50;;;;;;5082577;28;43004;-82
2024/01/14 14:03:33;;;;;;;;;;;18.90;58.20;;;;;;5064738;28;43103;-80
2024/01/14 14:05:58;;;;;;;;;;;20.30;58.20;;;;;;5302458;22;44968;-78
2024/01/14 14:08:58;;;;;;;;;;;18.80;57.80;;;;;;5056325;28;43174;-79
2024/01/14 14:11:26;;;;;;;;;;;18.40;57.30;;;;;;5053345;28;43878;-79
2024/01/14 14:20:10;;;;;;;;;;;19.30;57.80;;;;;;5050457;28;42993;-80
2024/01/14 14:22:36;;;;;;;;;;;18.60;57.50;;;;;;5063286;28;42975;-80
2024/01/14 14:25:01;;;;;;;;;;;18.90;57.70;;;;;;5063149;28;43225;-79
2024/01/14 14:27:27;;;;;;;;;;;18.90;57.70;;;;;;5055530;28;42978;-79
2024/01/14 14:29:52;;;;;;;;;;;18.90;57.80;;;;;;5086094;22;42908;-79
2024/01/14 14:32:18;;;;;;;;;;;18.90;57.80;;;;;;5062636;28;44464;-80
2024/01/14 14:34:44;;;;;;;;;;;18.90;57.80;;;;;;5059389;28;43016;-80
2024/01/14 14:37:10;;;;;;;;;;;18.90;57.80;;;;;;5058397;28;43506;-80
2024/01/14 14:39:36;;;;;;;;;;;18.90;57.80;;;;;;5054047;28;43025;-79
2024/01/14 14:42:02;;;;;;;;;;;18.90;57.80;;;;;;5052815;28;43125;-83
2024/01/14 14:44:27;;;;;;;;;;;18.90;58.00;;;;;;5056603;28;43283;-79
2024/01/14 14:49:56;;;;;;;;;;;19.80;58.40;;;;;;5064793;28;43317;-85
2024/01/14 15:01:31;;;;;;;;;;;20.20;58.80;;;;;;5374123;22;42950;-85
2024/01/14 15:03:57;;;;;;;;;;;18.90;58.00;;;;;;5080688;28;42763;-85
2024/01/14 15:06:22;;;;;;;;;;;19.00;58.20;;;;;;5075971;28;43134;-83
2024/01/14 15:08:48;;;;;;;;;;;18.90;58.00;;;;;;5065831;28;43540;-84
2024/01/14 15:11:13;;;;;;;;;;;19.00;58.00;;;;;;5060672;28;42973;-84
2024/01/14 15:13:39;;;;;;;;;;;18.90;58.00;;;;;;5056077;28;43320;-80
2024/01/14 15:16:04;;;;;;;;;;;19.00;58.00;;;;;;5063679;28;42832;-86
2024/01/14 15:36:48;;;;;;;;;;;21.00;58.90;;;;;;5090362;22;43458;-85
2024/01/14 15:39:14;;;;;;;;;;;18.90;58.20;;;;;;5086454;27;43071;-85
2024/01/14 15:41:44;;;;;;;;;;;19.00;58.00;;;;;;5394742;22;43302;-84
2024/01/14 15:44:09;;;;;;;;;;;19.00;57.70;;;;;;5084477;27;43015;-86
2024/01/14 15:46:35;;;;;;;;;;;19.00;57.80;;;;;;5084887;27;43442;-83
2024/01/14 15:49:00;;;;;;;;;;;19.00;58.00;;;;;;5084761;28;43011;-85
2024/01/14 15:51:26;;;;;;;;;;;19.00;58.00;;;;;;5084462;27;44050;-82
2024/01/14 15:53:51;;;;;;;;;;;16.00;56.30;;;;;;5085447;27;42980;-84
2024/01/14 15:56:17;;;;;;;;;;;19.00;57.70;;;;;;5083601;27;43120;-85
2024/01/14 15:58:43;;;;;;;;;;;19.00;57.80;;;;;;5084584;27;42891;-80
2024/01/14 16:01:08;;;;;;;;;;;19.00;57.80;;;;;;5084286;28;43008;-85
2024/01/14 16:03:34;;;;;;;;;;;19.00;57.30;;;;;;5083013;28;43194;-81
2024/01/14 16:06:00;;;;;;;;;;;19.00;57.80;;;;;;5071819;27;42946;-84
2024/01/14 16:08:25;;;;;;;;;;;19.00;57.80;;;;;;5085380;27;42964;-84
2024/01/14 16:10:51;;;;;;;;;;;19.00;57.70;;;;;;5083148;28;44071;-80
2024/01/14 16:13:19;;;;;;;;;;;19.00;57.80;;;;;;5083989;27;42920;-85
2024/01/14 16:15:45;;;;;;;;;;;19.00;57.90;;;;;;5083115;27;43084;-81
2024/01/14 16:31:07;;;;;;;;;;;18.90;57.80;;;;;;5752171;22;43834;-84
2024/01/14 16:36:08;;;;;;;;;;;18.90;57.90;;;;;;5824464;22;44485;-85
2024/01/14 16:38:49;;;;;;;;;;;19.00;58.50;;;;;;5085747;28;43302;-83
2024/01/14 16:41:16;;;;;;;;;;;19.30;57.90;;;;;;5086296;27;42936;-84
2024/01/14 16:43:43;;;;;;;;;;;19.00;58.40;;;;;;5082027;27;42975;-83
2024/01/14 16:46:09;;;;;;;;;;;19.00;58.10;;;;;;5078379;28;43940;-81
2024/01/14 16:51:38;;;;;;;;;;;19.80;58.00;;;;;;5151406;22;42982;-82
2024/01/14 16:57:07;;;;;;;;;;;19.90;58.00;;;;;;5120027;22;43348;-81
2024/01/14 16:59:32;;;;;;;;;;;18.90;57.50;;;;;;5058085;28;43107;-79
2024/01/14 17:01:58;;;;;;;;;;;18.90;57.50;;;;;;5062612;28;44046;-78
2024/01/14 17:04:23;;;;;;;;;;;18.90;57.40;;;;;;5065746;28;43911;-78
2024/01/14 17:06:49;;;;;;;;;;;18.90;57.40;;;;;;5065575;28;43032;-78
2024/01/14 17:09:23;;;;;;;;;;;18.90;57.30;;;;;;5063269;28;43508;-80
2024/01/14 17:11:49;;;;;;;;;;;19.70;57.70;;;;;;5062066;28;43506;-79